Terminal Aerodrome Forecast
Issued by NWS Springfield, MO

Home | Current Version | Previous Version | Text Only | Print | Product List | Glossary On
Versions: 1 2 3 4 5 6 7 8 9 10 11 12 13 14 15 16 17 18 19 20 21 22 23 24 25 26 27
778
FTUS43 KSGF 250520
TAFSGF
TAF
KSGF 250520Z 2506/2606 18005KT P6SM SCT250
     FM251000 27004KT P6SM VCTS BKN050CB
      TEMPO 2511/2515 4SM -TSRA OVC030CB
     FM251500 36006KT P6SM VCTS BKN050CB PROB30 2515/2519 4SM -TSRA
      OVC030CB
     FM260200 06007KT P6SM BKN250=

USA.gov is the U.S. government's official web portal to all federal, state and local government web resources and services.